sensor_id;sensor_type;location;lat;lon;timestamp;P1;durP1;ratioP1;P2;durP2;ratioP2
52934;SDS011;38802;50.198;19.796;2024-02-21T00:01:44;9.50;;;5.00;;
52934;SDS011;38802;50.198;19.796;2024-02-21T00:04:12;5.40;;;4.90;;
52934;SDS011;38802;50.198;19.796;2024-02-21T00:06:40;8.10;;;5.00;;
52934;SDS011;38802;50.198;19.796;2024-02-21T00:09:08;10.10;;;6.40;;
52934;SDS011;38802;50.198;19.796;2024-02-21T00:11:37;10.00;;;5.60;;
52934;SDS011;38802;50.198;19.796;2024-02-21T00:14:05;8.70;;;6.80;;
52934;SDS011;38802;50.198;19.796;2024-02-21T00:16:33;10.00;;;7.40;;
52934;SDS011;38802;50.198;19.796;2024-02-21T00:19:01;12.40;;;7.30;;
52934;SDS011;38802;50.198;19.796;2024-02-21T00:21:30;14.10;;;8.00;;
52934;SDS011;38802;50.198;19.796;2024-02-21T00:23:58;12.80;;;7.80;;
52934;SDS011;38802;50.198;19.796;2024-02-21T00:26:25;12.40;;;8.00;;
52934;SDS011;38802;50.198;19.796;2024-02-21T00:28:53;13.80;;;7.90;;
52934;SDS011;38802;50.198;19.796;2024-02-21T00:31:21;17.90;;;9.00;;
52934;SDS011;38802;50.198;19.796;2024-02-21T00:33:50;17.30;;;8.20;;
52934;SDS011;38802;50.198;19.796;2024-02-21T00:36:18;11.10;;;8.40;;
52934;SDS011;38802;50.198;19.796;2024-02-21T00:38:46;21.60;;;8.60;;
52934;SDS011;38802;50.198;19.796;2024-02-21T00:41:14;18.20;;;8.80;;
52934;SDS011;38802;50.198;19.796;2024-02-21T00:43:42;15.20;;;8.50;;
52934;SDS011;38802;50.198;19.796;2024-02-21T00:46:10;14.10;;;9.30;;
52934;SDS011;38802;50.198;19.796;2024-02-21T00:48:38;14.30;;;9.20;;
52934;SDS011;38802;50.198;19.796;2024-02-21T00:51:07;13.10;;;10.10;;
52934;SDS011;38802;50.198;19.796;2024-02-21T00:53:34;17.10;;;9.70;;
52934;SDS011;38802;50.198;19.796;2024-02-21T00:56:06;12.40;;;9.40;;
52934;SDS011;38802;50.198;19.796;2024-02-21T00:58:34;15.10;;;9.50;;
52934;SDS011;38802;50.198;19.796;2024-02-21T01:01:02;15.00;;;9.00;;
52934;SDS011;38802;50.198;19.796;2024-02-21T01:03:31;17.00;;;9.90;;
52934;SDS011;38802;50.198;19.796;2024-02-21T01:05:59;14.70;;;10.50;;
52934;SDS011;38802;50.198;19.796;2024-02-21T01:08:27;17.10;;;9.80;;
52934;SDS011;38802;50.198;19.796;2024-02-21T01:10:55;15.30;;;8.90;;
52934;SDS011;38802;50.198;19.796;2024-02-21T01:13:23;14.70;;;9.90;;
52934;SDS011;38802;50.198;19.796;2024-02-21T01:15:51;16.20;;;9.60;;
52934;SDS011;38802;50.198;19.796;2024-02-21T01:18:19;18.50;;;9.70;;
52934;SDS011;38802;50.198;19.796;2024-02-21T01:20:47;12.40;;;9.00;;
52934;SDS011;38802;50.198;19.796;2024-02-21T01:23:15;16.30;;;10.00;;
52934;SDS011;38802;50.198;19.796;2024-02-21T01:25:43;13.60;;;10.60;;
52934;SDS011;38802;50.198;19.796;2024-02-21T01:28:11;12.30;;;9.30;;
52934;SDS011;38802;50.198;19.796;2024-02-21T01:30:39;19.30;;;9.50;;
52934;SDS011;38802;50.198;19.796;2024-02-21T01:33:07;19.30;;;9.20;;
52934;SDS011;38802;50.198;19.796;2024-02-21T01:35:35;16.70;;;8.40;;
52934;SDS011;38802;50.198;19.796;2024-02-21T01:38:04;12.60;;;8.20;;
52934;SDS011;38802;50.198;19.796;2024-02-21T01:40:33;12.00;;;9.30;;
52934;SDS011;38802;50.198;19.796;2024-02-21T01:43:01;10.50;;;7.70;;
52934;SDS011;38802;50.198;19.796;2024-02-21T01:45:29;12.10;;;9.20;;
52934;SDS011;38802;50.198;19.796;2024-02-21T01:47:57;16.40;;;8.00;;
52934;SDS011;38802;50.198;19.796;2024-02-21T01:50:25;22.30;;;8.80;;
52934;SDS011;38802;50.198;19.796;2024-02-21T01:52:54;11.40;;;8.10;;
52934;SDS011;38802;50.198;19.796;2024-02-21T01:55:22;12.50;;;9.50;;
52934;SDS011;38802;50.198;19.796;2024-02-21T01:57:50;16.00;;;8.80;;
52934;SDS011;38802;50.198;19.796;2024-02-21T02:00:18;15.10;;;9.50;;
52934;SDS011;38802;50.198;19.796;2024-02-21T02:02:47;10.80;;;8.60;;
52934;SDS011;38802;50.198;19.796;2024-02-21T02:05:15;20.30;;;9.30;;
52934;SDS011;38802;50.198;19.796;2024-02-21T02:07:44;19.50;;;9.40;;
52934;SDS011;38802;50.198;19.796;2024-02-21T02:10:12;10.40;;;8.90;;
52934;SDS011;38802;50.198;19.796;2024-02-21T02:12:41;14.90;;;9.30;;
52934;SDS011;38802;50.198;19.796;2024-02-21T02:15:10;17.70;;;9.30;;
52934;SDS011;38802;50.198;19.796;2024-02-21T02:17:40;20.30;;;11.60;;
52934;SDS011;38802;50.198;19.796;2024-02-21T02:20:14;19.20;;;10.40;;
52934;SDS011;38802;50.198;19.796;2024-02-21T02:22:43;19.60;;;11.20;;
52934;SDS011;38802;50.198;19.796;2024-02-21T02:25:13;14.90;;;10.00;;
52934;SDS011;38802;50.198;19.796;2024-02-21T02:27:42;17.30;;;11.50;;
52934;SDS011;38802;50.198;19.796;2024-02-21T02:30:12;20.10;;;12.30;;
52934;SDS011;38802;50.198;19.796;2024-02-21T02:32:43;23.10;;;12.20;;
52934;SDS011;38802;50.198;19.796;2024-02-21T02:35:12;19.20;;;12.70;;
52934;SDS011;38802;50.198;19.796;2024-02-21T02:37:47;25.30;;;12.10;;
52934;SDS011;38802;50.198;19.796;2024-02-21T02:40:16;18.90;;;12.40;;
52934;SDS011;38802;50.198;19.796;2024-02-21T02:42:46;20.80;;;11.30;;
52934;SDS011;38802;50.198;19.796;2024-02-21T02:45:17;24.10;;;13.70;;
52934;SDS011;38802;50.198;19.796;2024-02-21T02:47:46;19.10;;;11.30;;
52934;SDS011;38802;50.198;19.796;2024-02-21T02:50:15;17.20;;;11.90;;
52934;SDS011;38802;50.198;19.796;2024-02-21T02:52:43;21.50;;;12.20;;
52934;SDS011;38802;50.198;19.796;2024-02-21T02:55:11;23.10;;;12.70;;
52934;SDS011;38802;50.198;19.796;2024-02-21T02:57:39;26.20;;;13.80;;
52934;SDS011;38802;50.198;19.796;2024-02-21T03:00:13;26.20;;;14.80;;
52934;SDS011;38802;50.198;19.796;2024-02-21T03:02:42;29.40;;;16.40;;
52934;SDS011;38802;50.198;19.796;2024-02-21T03:07:45;32.60;;;17.10;;
52934;SDS011;38802;50.198;19.796;2024-02-21T03:10:14;35.40;;;18.20;;
52934;SDS011;38802;50.198;19.796;2024-02-21T03:12:45;33.90;;;17.70;;
52934;SDS011;38802;50.198;19.796;2024-02-21T03:15:14;34.90;;;18.30;;
52934;SDS011;38802;50.198;19.796;2024-02-21T03:17:42;28.80;;;17.40;;
52934;SDS011;38802;50.198;19.796;2024-02-21T03:20:10;38.30;;;18.70;;
52934;SDS011;38802;50.198;19.796;2024-02-21T03:22:40;39.60;;;18.40;;
52934;SDS011;38802;50.198;19.796;2024-02-21T03:25:09;31.20;;;18.30;;
52934;SDS011;38802;50.198;19.796;2024-02-21T03:27:38;38.90;;;18.90;;
52934;SDS011;38802;50.198;19.796;2024-02-21T03:30:06;38.20;;;20.10;;
52934;SDS011;38802;50.198;19.796;2024-02-21T03:32:35;38.30;;;19.70;;
52934;SDS011;38802;50.198;19.796;2024-02-21T03:35:03;33.70;;;19.10;;
52934;SDS011;38802;50.198;19.796;2024-02-21T03:37:32;38.80;;;19.20;;
52934;SDS011;38802;50.198;19.796;2024-02-21T03:40:00;34.30;;;18.30;;
52934;SDS011;38802;50.198;19.796;2024-02-21T03:42:29;36.50;;;17.70;;
52934;SDS011;38802;50.198;19.796;2024-02-21T03:44:59;34.10;;;16.90;;
52934;SDS011;38802;50.198;19.796;2024-02-21T03:47:27;36.40;;;16.30;;
52934;SDS011;38802;50.198;19.796;2024-02-21T03:49:55;27.90;;;16.50;;
52934;SDS011;38802;50.198;19.796;2024-02-21T03:52:23;32.50;;;14.60;;
52934;SDS011;38802;50.198;19.796;2024-02-21T03:54:51;29.00;;;15.60;;
52934;SDS011;38802;50.198;19.796;2024-02-21T03:57:19;26.90;;;15.40;;
52934;SDS011;38802;50.198;19.796;2024-02-21T03:59:50;26.80;;;16.30;;
52934;SDS011;38802;50.198;19.796;2024-02-21T04:02:19;33.10;;;15.80;;
52934;SDS011;38802;50.198;19.796;2024-02-21T04:04:47;31.90;;;15.40;;
52934;SDS011;38802;50.198;19.796;2024-02-21T04:07:16;23.30;;;14.60;;
52934;SDS011;38802;50.198;19.796;2024-02-21T04:09:44;31.50;;;16.00;;
52934;SDS011;38802;50.198;19.796;2024-02-21T04:12:12;24.60;;;14.90;;
52934;SDS011;38802;50.198;19.796;2024-02-21T04:14:40;28.00;;;15.10;;
52934;SDS011;38802;50.198;19.796;2024-02-21T04:17:12;28.70;;;16.90;;
52934;SDS011;38802;50.198;19.796;2024-02-21T04:19:40;28.50;;;15.80;;
52934;SDS011;38802;50.198;19.796;2024-02-21T04:22:08;20.70;;;13.40;;
52934;SDS011;38802;50.198;19.796;2024-02-21T04:24:36;26.70;;;13.60;;
52934;SDS011;38802;50.198;19.796;2024-02-21T04:27:05;33.50;;;17.30;;
52934;SDS011;38802;50.198;19.796;2024-02-21T04:29:33;28.30;;;13.80;;
52934;SDS011;38802;50.198;19.796;2024-02-21T04:32:02;26.10;;;14.10;;
52934;SDS011;38802;50.198;19.796;2024-02-21T04:34:30;25.80;;;13.00;;
52934;SDS011;38802;50.198;19.796;2024-02-21T04:36:59;30.80;;;14.60;;
52934;SDS011;38802;50.198;19.796;2024-02-21T04:39:27;20.30;;;13.10;;
52934;SDS011;38802;50.198;19.796;2024-02-21T04:41:55;19.20;;;13.00;;
52934;SDS011;38802;50.198;19.796;2024-02-21T04:44:23;21.50;;;13.40;;
52934;SDS011;38802;50.198;19.796;2024-02-21T04:46:51;22.10;;;12.20;;
52934;SDS011;38802;50.198;19.796;2024-02-21T04:49:19;20.20;;;12.20;;
52934;SDS011;38802;50.198;19.796;2024-02-21T04:51:47;18.60;;;10.40;;
52934;SDS011;38802;50.198;19.796;2024-02-21T04:54:15;25.10;;;12.50;;
52934;SDS011;38802;50.198;19.796;2024-02-21T04:56:43;24.50;;;10.70;;
52934;SDS011;38802;50.198;19.796;2024-02-21T04:59:11;16.70;;;10.60;;
52934;SDS011;38802;50.198;19.796;2024-02-21T05:01:39;15.00;;;10.30;;
52934;SDS011;38802;50.198;19.796;2024-02-21T05:04:07;17.10;;;10.00;;
52934;SDS011;38802;50.198;19.796;2024-02-21T05:06:39;13.60;;;9.30;;
52934;SDS011;38802;50.198;19.796;2024-02-21T05:09:08;18.20;;;10.40;;
52934;SDS011;38802;50.198;19.796;2024-02-21T05:11:37;16.50;;;9.30;;
52934;SDS011;38802;50.198;19.796;2024-02-21T05:14:07;16.30;;;10.00;;
52934;SDS011;38802;50.198;19.796;2024-02-21T05:16:35;16.10;;;9.90;;
52934;SDS011;38802;50.198;19.796;2024-02-21T05:19:04;19.00;;;9.50;;
52934;SDS011;38802;50.198;19.796;2024-02-21T05:21:32;12.80;;;8.70;;
52934;SDS011;38802;50.198;19.796;2024-02-21T05:24:00;18.40;;;9.70;;
52934;SDS011;38802;50.198;19.796;2024-02-21T05:26:28;13.70;;;9.50;;
52934;SDS011;38802;50.198;19.796;2024-02-21T05:28:57;14.10;;;9.80;;
52934;SDS011;38802;50.198;19.796;2024-02-21T05:31:28;22.80;;;9.00;;
52934;SDS011;38802;50.198;19.796;2024-02-21T05:34:22;10.90;;;7.70;;
52934;SDS011;38802;50.198;19.796;2024-02-21T05:36:51;12.60;;;8.40;;
52934;SDS011;38802;50.198;19.796;2024-02-21T05:39:19;12.00;;;6.60;;
52934;SDS011;38802;50.198;19.796;2024-02-21T05:41:50;11.10;;;7.40;;
52934;SDS011;38802;50.198;19.796;2024-02-21T05:44:18;12.20;;;6.70;;
52934;SDS011;38802;50.198;19.796;2024-02-21T05:46:46;14.70;;;6.70;;
52934;SDS011;38802;50.198;19.796;2024-02-21T05:49:14;10.90;;;6.00;;
52934;SDS011;38802;50.198;19.796;2024-02-21T05:51:43;9.70;;;5.70;;
52934;SDS011;38802;50.198;19.796;2024-02-21T05:54:12;9.80;;;5.40;;
52934;SDS011;38802;50.198;19.796;2024-02-21T05:56:43;13.10;;;5.60;;
52934;SDS011;38802;50.198;19.796;2024-02-21T05:59:12;8.20;;;4.80;;
52934;SDS011;38802;50.198;19.796;2024-02-21T06:01:41;7.20;;;5.50;;
52934;SDS011;38802;50.198;19.796;2024-02-21T06:04:09;9.30;;;5.30;;
52934;SDS011;38802;50.198;19.796;2024-02-21T06:06:37;11.00;;;4.90;;
52934;SDS011;38802;50.198;19.796;2024-02-21T06:09:06;10.40;;;5.60;;
52934;SDS011;38802;50.198;19.796;2024-02-21T06:11:34;8.60;;;5.00;;
52934;SDS011;38802;50.198;19.796;2024-02-21T06:14:05;11.50;;;4.90;;
52934;SDS011;38802;50.198;19.796;2024-02-21T06:16:33;9.10;;;4.40;;
52934;SDS011;38802;50.198;19.796;2024-02-21T06:19:01;8.80;;;4.60;;
52934;SDS011;38802;50.198;19.796;2024-02-21T06:21:33;8.80;;;4.70;;
52934;SDS011;38802;50.198;19.796;2024-02-21T06:24:01;7.60;;;4.50;;
52934;SDS011;38802;50.198;19.796;2024-02-21T06:26:30;9.30;;;5.00;;
52934;SDS011;38802;50.198;19.796;2024-02-21T06:28:58;9.60;;;5.00;;
52934;SDS011;38802;50.198;19.796;2024-02-21T06:31:28;15.80;;;5.80;;
52934;SDS011;38802;50.198;19.796;2024-02-21T06:33:57;12.20;;;6.60;;
52934;SDS011;38802;50.198;19.796;2024-02-21T06:36:25;10.70;;;6.60;;
52934;SDS011;38802;50.198;19.796;2024-02-21T06:38:53;12.40;;;6.20;;
52934;SDS011;38802;50.198;19.796;2024-02-21T06:41:21;11.40;;;7.10;;
52934;SDS011;38802;50.198;19.796;2024-02-21T06:43:50;12.60;;;7.20;;
52934;SDS011;38802;50.198;19.796;2024-02-21T06:46:28;14.50;;;7.30;;
52934;SDS011;38802;50.198;19.796;2024-02-21T06:48:57;17.70;;;7.40;;
52934;SDS011;38802;50.198;19.796;2024-02-21T06:51:26;12.90;;;7.20;;
52934;SDS011;38802;50.198;19.796;2024-02-21T06:53:55;11.80;;;8.00;;
52934;SDS011;38802;50.198;19.796;2024-02-21T06:56:23;12.40;;;7.60;;
52934;SDS011;38802;50.198;19.796;2024-02-21T06:58:57;17.20;;;8.80;;
52934;SDS011;38802;50.198;19.796;2024-02-21T07:01:25;11.10;;;8.10;;
52934;SDS011;38802;50.198;19.796;2024-02-21T07:03:54;15.10;;;8.30;;
52934;SDS011;38802;50.198;19.796;2024-02-21T07:06:22;14.30;;;8.30;;
52934;SDS011;38802;50.198;19.796;2024-02-21T07:08:51;16.50;;;8.00;;
52934;SDS011;38802;50.198;19.796;2024-02-21T07:11:19;18.90;;;8.10;;
52934;SDS011;38802;50.198;19.796;2024-02-21T07:13:48;14.00;;;7.70;;
52934;SDS011;38802;50.198;19.796;2024-02-21T07:16:16;20.40;;;7.80;;
52934;SDS011;38802;50.198;19.796;2024-02-21T07:18:45;15.00;;;7.90;;
52934;SDS011;38802;50.198;19.796;2024-02-21T07:21:13;12.10;;;7.20;;
52934;SDS011;38802;50.198;19.796;2024-02-21T07:23:41;15.50;;;7.30;;
52934;SDS011;38802;50.198;19.796;2024-02-21T07:26:10;15.20;;;7.80;;
52934;SDS011;38802;50.198;19.796;2024-02-21T07:28:38;14.50;;;6.60;;
52934;SDS011;38802;50.198;19.796;2024-02-21T07:31:06;15.90;;;7.60;;
52934;SDS011;38802;50.198;19.796;2024-02-21T07:33:34;23.40;;;8.80;;
52934;SDS011;38802;50.198;19.796;2024-02-21T07:36:10;14.60;;;7.70;;
52934;SDS011;38802;50.198;19.796;2024-02-21T07:38:39;11.70;;;6.90;;
52934;SDS011;38802;50.198;19.796;2024-02-21T07:41:07;16.70;;;7.50;;
52934;SDS011;38802;50.198;19.796;2024-02-21T07:43:35;25.30;;;8.00;;
52934;SDS011;38802;50.198;19.796;2024-02-21T07:46:03;12.80;;;7.50;;
52934;SDS011;38802;50.198;19.796;2024-02-21T07:48:32;11.30;;;6.90;;
52934;SDS011;38802;50.198;19.796;2024-02-21T07:51:02;9.90;;;6.20;;
52934;SDS011;38802;50.198;19.796;2024-02-21T07:53:30;14.50;;;6.60;;
52934;SDS011;38802;50.198;19.796;2024-02-21T07:55:58;17.70;;;6.20;;
52934;SDS011;38802;50.198;19.796;2024-02-21T07:58:27;20.10;;;7.10;;
52934;SDS011;38802;50.198;19.796;2024-02-21T08:00:55;17.70;;;6.40;;
52934;SDS011;38802;50.198;19.796;2024-02-21T08:03:24;14.90;;;7.30;;
52934;SDS011;38802;50.198;19.796;2024-02-21T08:05:54;11.40;;;6.20;;
52934;SDS011;38802;50.198;19.796;2024-02-21T08:08:22;13.30;;;7.00;;
52934;SDS011;38802;50.198;19.796;2024-02-21T08:10:50;21.10;;;7.60;;
52934;SDS011;38802;50.198;19.796;2024-02-21T08:13:19;9.80;;;6.90;;
52934;SDS011;38802;50.198;19.796;2024-02-21T08:15:47;12.70;;;7.70;;
52934;SDS011;38802;50.198;19.796;2024-02-21T08:18:15;11.50;;;7.30;;
52934;SDS011;38802;50.198;19.796;2024-02-21T08:20:43;16.40;;;7.30;;
52934;SDS011;38802;50.198;19.796;2024-02-21T08:23:11;16.60;;;6.90;;
52934;SDS011;38802;50.198;19.796;2024-02-21T08:25:40;18.10;;;7.90;;
52934;SDS011;38802;50.198;19.796;2024-02-21T08:28:08;20.60;;;8.70;;
52934;SDS011;38802;50.198;19.796;2024-02-21T08:30:36;9.50;;;7.60;;
52934;SDS011;38802;50.198;19.796;2024-02-21T08:33:04;17.70;;;7.70;;
52934;SDS011;38802;50.198;19.796;2024-02-21T08:35:32;19.80;;;8.80;;
52934;SDS011;38802;50.198;19.796;2024-02-21T08:38:00;12.10;;;7.10;;
52934;SDS011;38802;50.198;19.796;2024-02-21T08:40:29;15.80;;;7.00;;
52934;SDS011;38802;50.198;19.796;2024-02-21T08:42:57;15.80;;;7.60;;
52934;SDS011;38802;50.198;19.796;2024-02-21T08:45:25;20.20;;;8.60;;
52934;SDS011;38802;50.198;19.796;2024-02-21T08:47:53;12.70;;;7.90;;
52934;SDS011;38802;50.198;19.796;2024-02-21T08:50:21;15.80;;;7.40;;
52934;SDS011;38802;50.198;19.796;2024-02-21T08:52:56;11.70;;;7.50;;
52934;SDS011;38802;50.198;19.796;2024-02-21T08:55:25;14.40;;;8.40;;
52934;SDS011;38802;50.198;19.796;2024-02-21T08:57:53;16.80;;;6.80;;
52934;SDS011;38802;50.198;19.796;2024-02-21T09:00:21;25.90;;;9.20;;
52934;SDS011;38802;50.198;19.796;2024-02-21T09:02:55;13.50;;;8.10;;
52934;SDS011;38802;50.198;19.796;2024-02-21T09:05:24;14.80;;;8.40;;
52934;SDS011;38802;50.198;19.796;2024-02-21T09:07:53;14.00;;;8.10;;
52934;SDS011;38802;50.198;19.796;2024-02-21T09:10:22;18.10;;;8.70;;
52934;SDS011;38802;50.198;19.796;2024-02-21T09:12:50;14.40;;;7.60;;
52934;SDS011;38802;50.198;19.796;2024-02-21T09:15:18;15.00;;;8.20;;
52934;SDS011;38802;50.198;19.796;2024-02-21T09:17:46;11.20;;;6.20;;
52934;SDS011;38802;50.198;19.796;2024-02-21T09:20:15;20.60;;;6.90;;
52934;SDS011;38802;50.198;19.796;2024-02-21T09:22:44;12.60;;;5.80;;
52934;SDS011;38802;50.198;19.796;2024-02-21T09:25:13;14.80;;;6.80;;
52934;SDS011;38802;50.198;19.796;2024-02-21T09:27:41;10.40;;;5.90;;
52934;SDS011;38802;50.198;19.796;2024-02-21T09:30:09;15.60;;;6.00;;
52934;SDS011;38802;50.198;19.796;2024-02-21T09:32:38;10.70;;;6.20;;
52934;SDS011;38802;50.198;19.796;2024-02-21T09:35:06;13.30;;;6.10;;
52934;SDS011;38802;50.198;19.796;2024-02-21T09:37:37;9.50;;;5.50;;
52934;SDS011;38802;50.198;19.796;2024-02-21T09:41:04;16.60;;;5.40;;
52934;SDS011;38802;50.198;19.796;2024-02-21T09:44:32;10.60;;;5.20;;
52934;SDS011;38802;50.198;19.796;2024-02-21T09:51:01;11.20;;;6.10;;
52934;SDS011;38802;50.198;19.796;2024-02-21T09:53:31;6.90;;;4.90;;
52934;SDS011;38802;50.198;19.796;2024-02-21T09:56:02;12.00;;;6.10;;
52934;SDS011;38802;50.198;19.796;2024-02-21T09:58:31;15.60;;;6.20;;
52934;SDS011;38802;50.198;19.796;2024-02-21T10:01:00;13.90;;;5.30;;
52934;SDS011;38802;50.198;19.796;2024-02-21T10:03:31;10.40;;;5.60;;
52934;SDS011;38802;50.198;19.796;2024-02-21T10:06:01;12.90;;;5.70;;
52934;SDS011;38802;50.198;19.796;2024-02-21T10:08:30;15.30;;;6.90;;
52934;SDS011;38802;50.198;19.796;2024-02-21T10:10:58;13.40;;;6.20;;
52934;SDS011;38802;50.198;19.796;2024-02-21T10:13:29;10.30;;;5.30;;
52934;SDS011;38802;50.198;19.796;2024-02-21T10:16:07;10.90;;;4.80;;
52934;SDS011;38802;50.198;19.796;2024-02-21T10:18:36;8.60;;;5.00;;
52934;SDS011;38802;50.198;19.796;2024-02-21T10:21:07;8.30;;;4.70;;
52934;SDS011;38802;50.198;19.796;2024-02-21T10:23:46;10.10;;;5.10;;
52934;SDS011;38802;50.198;19.796;2024-02-21T10:26:16;9.20;;;5.10;;
52934;SDS011;38802;50.198;19.796;2024-02-21T10:28:46;9.10;;;5.30;;
52934;SDS011;38802;50.198;19.796;2024-02-21T10:31:26;9.40;;;5.70;;
52934;SDS011;38802;50.198;19.796;2024-02-21T10:33:59;8.20;;;4.70;;
52934;SDS011;38802;50.198;19.796;2024-02-21T10:39:09;11.70;;;4.50;;
52934;SDS011;38802;50.198;19.796;2024-02-21T10:41:39;10.80;;;4.60;;
52934;SDS011;38802;50.198;19.796;2024-02-21T10:44:10;7.20;;;4.00;;
52934;SDS011;38802;50.198;19.796;2024-02-21T10:46:39;8.70;;;4.50;;
52934;SDS011;38802;50.198;19.796;2024-02-21T10:49:10;8.90;;;3.90;;
52934;SDS011;38802;50.198;19.796;2024-02-21T10:52:06;8.90;;;4.70;;
52934;SDS011;38802;50.198;19.796;2024-02-21T10:57:15;10.70;;;4.50;;
52934;SDS011;38802;50.198;19.796;2024-02-21T10:59:45;9.90;;;6.30;;
52934;SDS011;38802;50.198;19.796;2024-02-21T11:02:15;7.20;;;4.00;;
52934;SDS011;38802;50.198;19.796;2024-02-21T11:04:44;8.10;;;3.80;;
52934;SDS011;38802;50.198;19.796;2024-02-21T11:07:13;9.40;;;4.30;;
52934;SDS011;38802;50.198;19.796;2024-02-21T11:09:50;9.70;;;4.20;;
52934;SDS011;38802;50.198;19.796;2024-02-21T11:12:21;9.70;;;3.80;;
52934;SDS011;38802;50.198;19.796;2024-02-21T11:14:50;7.20;;;3.70;;
52934;SDS011;38802;50.198;19.796;2024-02-21T11:17:18;9.80;;;3.90;;
52934;SDS011;38802;50.198;19.796;2024-02-21T11:19:49;15.30;;;4.80;;
52934;SDS011;38802;50.198;19.796;2024-02-21T11:22:18;13.60;;;5.00;;
52934;SDS011;38802;50.198;19.796;2024-02-21T11:24:47;8.80;;;4.30;;
52934;SDS011;38802;50.198;19.796;2024-02-21T11:27:16;9.40;;;3.90;;
52934;SDS011;38802;50.198;19.796;2024-02-21T11:29:49;13.80;;;4.80;;
52934;SDS011;38802;50.198;19.796;2024-02-21T11:32:22;8.50;;;4.10;;
52934;SDS011;38802;50.198;19.796;2024-02-21T11:34:55;10.00;;;4.40;;
52934;SDS011;38802;50.198;19.796;2024-02-21T11:37:24;11.40;;;4.30;;
52934;SDS011;38802;50.198;19.796;2024-02-21T11:39:55;8.30;;;4.80;;
52934;SDS011;38802;50.198;19.796;2024-02-21T11:42:27;14.20;;;6.20;;
52934;SDS011;38802;50.198;19.796;2024-02-21T11:44:57;11.50;;;4.60;;
52934;SDS011;38802;50.198;19.796;2024-02-21T11:47:28;13.90;;;5.10;;
52934;SDS011;38802;50.198;19.796;2024-02-21T11:49:57;8.30;;;4.40;;
52934;SDS011;38802;50.198;19.796;2024-02-21T11:52:26;12.90;;;4.80;;
52934;SDS011;38802;50.198;19.796;2024-02-21T11:54:55;10.20;;;4.50;;
52934;SDS011;38802;50.198;19.796;2024-02-21T11:57:33;9.00;;;3.60;;
52934;SDS011;38802;50.198;19.796;2024-02-21T12:00:16;11.80;;;5.00;;
52934;SDS011;38802;50.198;19.796;2024-02-21T12:02:47;7.40;;;3.40;;
52934;SDS011;38802;50.198;19.796;2024-02-21T12:05:21;10.40;;;4.10;;
52934;SDS011;38802;50.198;19.796;2024-02-21T12:07:49;12.30;;;4.90;;
52934;SDS011;38802;50.198;19.796;2024-02-21T12:10:18;10.40;;;4.60;;
52934;SDS011;38802;50.198;19.796;2024-02-21T12:12:46;15.40;;;4.50;;
52934;SDS011;38802;50.198;19.796;2024-02-21T12:15:14;8.40;;;5.30;;
52934;SDS011;38802;50.198;19.796;2024-02-21T12:17:43;11.50;;;4.00;;
52934;SDS011;38802;50.198;19.796;2024-02-21T12:20:11;13.10;;;4.10;;
52934;SDS011;38802;50.198;19.796;2024-02-21T12:22:43;11.00;;;4.20;;
52934;SDS011;38802;50.198;19.796;2024-02-21T12:25:21;10.10;;;3.80;;
52934;SDS011;38802;50.198;19.796;2024-02-21T12:27:51;8.90;;;3.70;;
52934;SDS011;38802;50.198;19.796;2024-02-21T12:30:19;12.40;;;3.90;;
52934;SDS011;38802;50.198;19.796;2024-02-21T12:32:48;9.10;;;3.80;;
52934;SDS011;38802;50.198;19.796;2024-02-21T12:35:16;6.10;;;3.40;;
52934;SDS011;38802;50.198;19.796;2024-02-21T12:37:46;12.20;;;4.30;;
52934;SDS011;38802;50.198;19.796;2024-02-21T12:40:14;13.90;;;3.90;;
52934;SDS011;38802;50.198;19.796;2024-02-21T12:42:43;17.30;;;6.60;;
52934;SDS011;38802;50.198;19.796;2024-02-21T12:45:13;10.30;;;5.50;;
52934;SDS011;38802;50.198;19.796;2024-02-21T12:47:43;13.90;;;6.50;;
52934;SDS011;38802;50.198;19.796;2024-02-21T12:50:11;8.30;;;4.10;;
52934;SDS011;38802;50.198;19.796;2024-02-21T12:52:39;10.30;;;3.90;;
52934;SDS011;38802;50.198;19.796;2024-02-21T12:55:08;9.50;;;3.60;;
52934;SDS011;38802;50.198;19.796;2024-02-21T12:57:39;10.00;;;3.70;;
52934;SDS011;38802;50.198;19.796;2024-02-21T13:00:07;10.20;;;4.30;;
52934;SDS011;38802;50.198;19.796;2024-02-21T13:02:39;13.90;;;7.10;;
52934;SDS011;38802;50.198;19.796;2024-02-21T13:05:09;15.40;;;4.50;;
52934;SDS011;38802;50.198;19.796;2024-02-21T13:07:38;9.90;;;4.20;;
52934;SDS011;38802;50.198;19.796;2024-02-21T13:10:06;15.30;;;5.80;;
52934;SDS011;38802;50.198;19.796;2024-02-21T13:12:36;16.40;;;4.50;;
52934;SDS011;38802;50.198;19.796;2024-02-21T13:15:04;9.30;;;4.20;;
52934;SDS011;38802;50.198;19.796;2024-02-21T13:17:33;5.60;;;3.50;;
52934;SDS011;38802;50.198;19.796;2024-02-21T13:20:01;10.00;;;4.10;;
52934;SDS011;38802;50.198;19.796;2024-02-21T13:22:30;8.90;;;4.00;;
52934;SDS011;38802;50.198;19.796;2024-02-21T13:24:58;9.50;;;4.00;;
52934;SDS011;38802;50.198;19.796;2024-02-21T13:27:26;12.60;;;4.30;;
52934;SDS011;38802;50.198;19.796;2024-02-21T13:29:54;13.90;;;4.10;;
52934;SDS011;38802;50.198;19.796;2024-02-21T13:32:22;11.30;;;4.50;;
52934;SDS011;38802;50.198;19.796;2024-02-21T13:34:51;12.50;;;4.30;;
52934;SDS011;38802;50.198;19.796;2024-02-21T13:37:20;11.90;;;3.80;;
52934;SDS011;38802;50.198;19.796;2024-02-21T13:39:49;8.30;;;4.30;;
52934;SDS011;38802;50.198;19.796;2024-02-21T13:42:18;11.00;;;5.40;;
52934;SDS011;38802;50.198;19.796;2024-02-21T13:44:47;18.00;;;7.50;;
52934;SDS011;38802;50.198;19.796;2024-02-21T13:47:15;15.30;;;4.60;;
52934;SDS011;38802;50.198;19.796;2024-02-21T13:49:44;8.30;;;4.50;;
52934;SDS011;38802;50.198;19.796;2024-02-21T13:52:12;11.10;;;4.20;;
52934;SDS011;38802;50.198;19.796;2024-02-21T13:54:40;13.00;;;5.00;;
52934;SDS011;38802;50.198;19.796;2024-02-21T13:57:10;8.00;;;4.90;;
52934;SDS011;38802;50.198;19.796;2024-02-21T13:59:37;9.70;;;4.30;;
52934;SDS011;38802;50.198;19.796;2024-02-21T14:02:07;9.20;;;3.70;;
52934;SDS011;38802;50.198;19.796;2024-02-21T14:04:35;10.70;;;3.80;;
52934;SDS011;38802;50.198;19.796;2024-02-21T14:07:03;11.00;;;3.80;;
52934;SDS011;38802;50.198;19.796;2024-02-21T14:09:32;4.90;;;4.30;;
52934;SDS011;38802;50.198;19.796;2024-02-21T14:12:01;11.60;;;4.80;;
52934;SDS011;38802;50.198;19.796;2024-02-21T14:14:29;9.20;;;4.60;;
52934;SDS011;38802;50.198;19.796;2024-02-21T14:16:57;10.70;;;4.60;;
52934;SDS011;38802;50.198;19.796;2024-02-21T14:19:25;12.70;;;5.50;;
52934;SDS011;38802;50.198;19.796;2024-02-21T14:21:54;13.20;;;4.50;;
52934;SDS011;38802;50.198;19.796;2024-02-21T14:24:22;9.00;;;4.60;;
52934;SDS011;38802;50.198;19.796;2024-02-21T14:26:51;7.30;;;4.60;;
52934;SDS011;38802;50.198;19.796;2024-02-21T14:29:19;8.50;;;4.30;;
52934;SDS011;38802;50.198;19.796;2024-02-21T14:31:48;9.10;;;4.50;;
52934;SDS011;38802;50.198;19.796;2024-02-21T14:34:17;9.30;;;4.50;;
52934;SDS011;38802;50.198;19.796;2024-02-21T14:36:45;10.50;;;4.50;;
52934;SDS011;38802;50.198;19.796;2024-02-21T14:39:13;9.10;;;4.30;;
52934;SDS011;38802;50.198;19.796;2024-02-21T14:41:41;8.10;;;5.50;;
52934;SDS011;38802;50.198;19.796;2024-02-21T14:44:10;8.20;;;4.10;;
52934;SDS011;38802;50.198;19.796;2024-02-21T14:46:39;12.60;;;4.70;;